^^
B2 Weather Station Historical Data
Daily Summary for January 27, 2018 Units:  English    Metric   Both
Daily Weekly Monthly Yearly Custom
  High: Low: Average:
Temperature: 50.1 °F 30.2 °F 42 °F
Dew Point: 42.2 °F 24.0 °F 28.9 °F
Humidity: 88% 40% 61%
Wind Speed: 20.7mph 0.0mph 5.3mph
Wind Gust: 20.7mph - -
Wind- - WNW
Pressure: 30.27 in 30.06 in -
Precipitation: 0.00 in    
Historical Graphs
 
 
Tabular Data for January 27, 2018
Time Temperature Dew Point Pressure Wind Wind Speed Wind Gust Humidity Rainfall Rate (Hourly) solar
00:04 48.3 °F 37.1 °F 30.06 in South 19.6 mph 19.6 mph 65% 0.00 in 0.0 W/m2
01:17 48.3 °F 37.1 °F 30.06 in South 19.6 mph 19.6 mph 65% 0.00 in 0.0 W/m2
05:34 48.3 °F 37.1 °F 30.06 in South 19.6 mph 19.6 mph 65% 0.00 in 0.0 W/m2
05:52 48.3 °F 37.1 °F 30.06 in South 19.6 mph 19.6 mph 65% 0.00 in 0.0 W/m2
07:45 48.3 °F 37.1 °F 30.06 in South 20.7 mph 20.7 mph 65% 0.00 in 0.0 W/m2
07:50 45.4 °F 42.1 °F 30.11 in WSW 3.5 mph 3.5 mph 88% 0.00 in 18.0 W/m2
07:55 45.5 °F 42.2 °F 30.11 in WNW 2.3 mph 2.3 mph 88% 0.00 in 25.0 W/m2
08:00 45.5 °F 41.9 °F 30.11 in WSW 3.5 mph 3.5 mph 87% 0.00 in 32.0 W/m2
08:05 45.0 °F 39.8 °F 30.11 in WNW 13.8 mph 13.8 mph 82% 0.00 in 28.0 W/m2
08:10 44.3 °F 38.5 °F 30.12 in NW 10.4 mph 10.4 mph 80% 0.00 in 39.0 W/m2
08:15 43.8 °F 38.0 °F 30.11 in NW 9.2 mph 9.2 mph 80% 0.00 in 40.0 W/m2
08:20 43.4 °F 37.0 °F 30.12 in NW 9.2 mph 9.2 mph 78% 0.00 in 47.0 W/m2
08:25 43.1 °F 36.7 °F 30.12 in NW 10.4 mph 10.4 mph 78% 0.00 in 47.0 W/m2
08:30 43.0 °F 36.3 °F 30.12 in West 9.0 mph 9.0 mph 77% 0.00 in 53.0 W/m2
08:35 42.8 °F 36.1 °F 30.12 in NW 11.5 mph 11.5 mph 77% 0.00 in 100.0 W/m2
08:40 42.8 °F 36.1 °F 30.12 in NW 8.1 mph 8.1 mph 77% 0.00 in 83.0 W/m2
08:45 42.7 °F 35.7 °F 30.13 in WNW 9.2 mph 9.2 mph 76% 0.00 in 56.0 W/m2
08:50 42.4 °F 35.4 °F 30.13 in WNW 10.4 mph 10.4 mph 76% 0.00 in 49.0 W/m2
08:55 42.2 °F 35.5 °F 30.13 in Calm     77% 0.00 in 51.0 W/m2
09:00 42.2 °F 35.5 °F 30.14 in WNW 8.1 mph 8.1 mph 77% 0.00 in 185.0 W/m2
09:03 42.4 °F 36.0 °F 30.14 in West 2.3 mph   78% 0.00 in 272.0 W/m2
09:57 42.4 °F 36.0 °F 30.14 in West 2.3 mph   78% 0.00 in 272.0 W/m2
09:59 42.4 °F 36.0 °F 30.14 in Calm     78% 0.00 in 272.0 W/m2
10:02 42.4 °F 36.0 °F 30.14 in Calm     78% 0.00 in 272.0 W/m2
10:07 42.4 °F 36.0 °F 30.14 in Calm     78% 0.00 in 272.0 W/m2
10:29 42.4 °F 36.0 °F 30.14 in Calm     78% 0.00 in 272.0 W/m2
11:04 42.4 °F 36.0 °F 30.14 in Calm     78% 0.00 in 272.0 W/m2
11:09 46.7 °F 37.1 °F 30.17 in NW 17.3 mph 17.3 mph 69% 0.00 in 541.0 W/m2
11:14 46.7 °F 37.1 °F 30.17 in WNW 10.4 mph 10.4 mph 69% 0.00 in 501.0 W/m2
11:19 46.9 °F 36.9 °F 30.17 in West 11.5 mph 11.5 mph 68% 0.00 in 508.0 W/m2
11:24 47.2 °F 36.8 °F 30.17 in WNW 13.8 mph 13.8 mph 67% 0.00 in 510.0 W/m2
11:29 47.0 °F 36.2 °F 30.17 in WNW 14.0 mph 14.0 mph 66% 0.00 in 513.0 W/m2
11:34 47.0 °F 36.2 °F 30.17 in West 16.1 mph 16.1 mph 66% 0.00 in 524.0 W/m2
11:39 47.2 °F 35.6 °F 30.17 in WSW 15.0 mph 15.0 mph 64% 0.00 in 520.0 W/m2
11:44 47.3 °F 34.5 °F 30.17 in WNW 16.1 mph 16.1 mph 61% 0.00 in 526.0 W/m2
11:49 47.3 °F 34.9 °F 30.17 in West 13.8 mph 13.8 mph 62% 0.00 in 526.0 W/m2
11:54 47.7 °F 35.7 °F 30.17 in West 9.2 mph 9.2 mph 63% 0.00 in 527.0 W/m2
11:59 47.7 °F 34.9 °F 30.17 in WSW 11.5 mph 11.5 mph 61% 0.00 in 531.0 W/m2
12:04 47.9 °F 34.7 °F 30.16 in WSW 10.0 mph 10.0 mph 60% 0.00 in 531.0 W/m2
12:09 48.3 °F 34.6 °F 30.16 in WNW 9.2 mph 9.2 mph 59% 0.00 in 526.0 W/m2
12:14 48.6 °F 34.5 °F 30.16 in NW 11.5 mph 11.5 mph 58% 0.00 in 533.0 W/m2
12:19 48.9 °F 34.3 °F 30.16 in NW 11.5 mph 11.5 mph 57% 0.00 in 533.0 W/m2
12:24 49.0 °F 32.1 °F 30.16 in West 11.5 mph 11.5 mph 52% 0.00 in 533.0 W/m2
12:29 49.0 °F 30.1 °F 30.16 in NW 12.7 mph 12.7 mph 48% 0.00 in 531.0 W/m2
12:34 49.1 °F 30.2 °F 30.16 in WNW 12.7 mph 12.7 mph 48% 0.00 in 531.0 W/m2
12:40 49.2 °F 31.8 °F 30.16 in WNW 12.0 mph 12.0 mph 51% 0.00 in 527.0 W/m2
12:45 49.4 °F 30.0 °F 30.16 in West 11.5 mph 11.5 mph 47% 0.00 in 526.0 W/m2
12:50 49.5 °F 30.6 °F 30.16 in NW 15.0 mph 15.0 mph 48% 0.00 in 524.0 W/m2
12:55 49.6 °F 28.6 °F 30.16 in WNW 8.1 mph 8.1 mph 44% 0.00 in 519.0 W/m2
13:00 49.6 °F 28.0 °F 30.16 in WNW 13.8 mph 13.8 mph 43% 0.00 in 513.0 W/m2
13:05 49.7 °F 28.6 °F 30.16 in NW 11.5 mph 11.5 mph 44% 0.00 in 512.0 W/m2
13:10 50.0 °F 29.5 °F 30.16 in NW 11.5 mph 11.5 mph 45% 0.00 in 504.0 W/m2
13:15 50.1 °F 27.9 °F 30.16 in WNW 13.8 mph 13.8 mph 42% 0.00 in 503.0 W/m2
13:20 50.1 °F 27.9 °F 30.16 in WNW 11.5 mph 11.5 mph 42% 0.00 in 497.0 W/m2
13:25 50.1 °F 28.4 °F 30.16 in NW 12.7 mph 12.7 mph 43% 0.00 in 490.0 W/m2
13:30 50.1 °F 28.4 °F 30.16 in NW 11.5 mph 11.5 mph 43% 0.00 in 483.0 W/m2
13:35 50.1 °F 29.0 °F 30.16 in WNW 11.5 mph 11.5 mph 44% 0.00 in 476.0 W/m2
13:40 49.9 °F 28.3 °F 30.16 in NW 11.5 mph 11.5 mph 43% 0.00 in 469.0 W/m2
13:45 49.7 °F 26.3 °F 30.16 in NW 17.0 mph 17.0 mph 40% 0.00 in 462.0 W/m2
13:50 49.7 °F 29.2 °F 30.16 in NW 11.5 mph 11.5 mph 45% 0.00 in 452.0 W/m2
13:55 49.7 °F 28.6 °F 30.16 in NW 11.5 mph 11.5 mph 44% 0.00 in 445.0 W/m2
14:00 49.6 °F 28.0 °F 30.16 in NW 13.8 mph 13.8 mph 43% 0.00 in 438.0 W/m2
14:05 49.6 °F 29.1 °F 30.17 in NW 12.7 mph 12.7 mph 45% 0.00 in 427.0 W/m2
14:10 49.6 °F 29.6 °F 30.17 in WNW 11.5 mph 11.5 mph 46% 0.00 in 411.0 W/m2
14:15 49.6 °F 29.6 °F 30.17 in WNW 12.7 mph 12.7 mph 46% 0.00 in 404.0 W/m2
14:20 49.8 °F 29.8 °F 30.17 in NW 11.5 mph 11.5 mph 46% 0.00 in 394.0 W/m2
14:25 49.7 °F 28.1 °F 30.17 in NW 11.5 mph 11.5 mph 43% 0.00 in 387.0 W/m2
14:30 49.6 °F 28.6 °F 30.17 in NW 12.0 mph 12.0 mph 44% 0.00 in 376.0 W/m2
14:35 49.5 °F 29.0 °F 30.17 in NW 10.4 mph 10.4 mph 45% 0.00 in 362.0 W/m2
14:40 49.4 °F 30.0 °F 30.17 in WNW 6.9 mph 6.9 mph 47% 0.00 in 352.0 W/m2
14:45 49.4 °F 29.5 °F 30.18 in NW 6.9 mph 6.9 mph 46% 0.00 in 341.0 W/m2
14:50 49.6 °F 29.6 °F 30.17 in NW 12.7 mph 12.7 mph 46% 0.00 in 329.0 W/m2
14:55 49.3 °F 27.7 °F 30.18 in NW 11.5 mph 11.5 mph 43% 0.00 in 320.0 W/m2
15:00 49.2 °F 28.7 °F 30.18 in WNW 9.2 mph 9.2 mph 45% 0.00 in 308.0 W/m2
15:05 49.3 °F 29.9 °F 30.18 in NW 6.9 mph 6.9 mph 47% 0.00 in 295.0 W/m2
15:10 49.1 °F 28.7 °F 30.18 in NW 13.8 mph 13.8 mph 45% 0.00 in 283.0 W/m2
15:15 48.7 °F 28.8 °F 30.18 in NW 12.7 mph 12.7 mph 46% 0.00 in 267.0 W/m2
15:20 48.6 °F 28.7 °F 30.18 in WNW 12.7 mph 12.7 mph 46% 0.00 in 251.0 W/m2
15:25 48.5 °F 27.6 °F 30.19 in NW 15.0 mph 15.0 mph 44% 0.00 in 234.0 W/m2
15:30 48.2 °F 26.7 °F 30.19 in WNW 11.5 mph 11.5 mph 43% 0.00 in 218.0 W/m2
15:35 48.2 °F 27.3 °F 30.19 in NW 12.7 mph 12.7 mph 44% 0.00 in 202.0 W/m2
15:40 48.0 °F 26.5 °F 30.19 in NW 11.5 mph 11.5 mph 43% 0.00 in 185.0 W/m2
15:45 47.9 °F 25.9 °F 30.19 in NW 11.5 mph 11.5 mph 42% 0.00 in 167.0 W/m2
15:50 47.8 °F 25.2 °F 30.19 in NW 11.5 mph 11.5 mph 41% 0.00 in 149.0 W/m2
15:55 47.7 °F 24.5 °F 30.19 in NW 8.1 mph 8.1 mph 40% 0.00 in 132.0 W/m2
16:00 47.6 °F 25.6 °F 30.20 in NW 9.2 mph 9.2 mph 42% 0.00 in 114.0 W/m2
16:05 47.5 °F 26.1 °F 30.20 in NW 7.0 mph 7.0 mph 43% 0.00 in 98.0 W/m2
16:10 47.2 °F 26.4 °F 30.20 in NW 9.2 mph 9.2 mph 44% 0.00 in 83.0 W/m2
16:15 47.0 °F 26.7 °F 30.20 in NW 6.9 mph 6.9 mph 45% 0.00 in 69.0 W/m2
16:20 46.7 °F 27.0 °F 30.20 in Calm     46% 0.00 in 19.0 W/m2
16:25 46.3 °F 27.2 °F 30.20 in Calm     47% 0.00 in 18.0 W/m2
16:30 46.1 °F 27.0 °F 30.20 in Calm     47% 0.00 in 16.0 W/m2
16:35 45.9 °F 27.3 °F 30.21 in Calm     48% 0.00 in 14.0 W/m2
16:40 45.6 °F 26.5 °F 30.21 in WNW 2.3 mph 2.3 mph 47% 0.00 in 12.0 W/m2
16:45 45.4 °F 26.8 °F 30.21 in Calm     48% 0.00 in 11.0 W/m2
16:50 45.1 °F 25.5 °F 30.21 in West 2.3 mph 2.3 mph 46% 0.00 in 9.0 W/m2
16:55 45.0 °F 24.4 °F 30.21 in WSW 4.6 mph 4.6 mph 44% 0.00 in 7.0 W/m2
17:00 45.1 °F 24.5 °F 30.21 in Calm     44% 0.00 in 5.0 W/m2
17:05 44.9 °F 24.3 °F 30.21 in Calm     44% 0.00 in 0.0 W/m2
17:10 44.6 °F 24.0 °F 30.21 in Calm     44% 0.00 in 0.0 W/m2
17:15 44.1 °F 24.6 °F 30.22 in Calm     46% 0.00 in 0.0 W/m2
17:20 43.6 °F 24.2 °F 30.22 in Calm     46% 0.00 in 0.0 W/m2
17:25 43.2 °F 24.3 °F 30.22 in Calm     47% 0.00 in 0.0 W/m2
17:30 42.9 °F 24.5 °F 30.22 in Calm     48% 0.00 in 0.0 W/m2
17:35 42.8 °F 24.4 °F 30.22 in Calm     48% 0.00 in 0.0 W/m2
17:40 42.7 °F 24.8 °F 30.23 in Calm     49% 0.00 in 0.0 W/m2
17:45 42.4 °F 24.6 °F 30.23 in Calm     49% 0.00 in 0.0 W/m2
17:50 42.1 °F 24.8 °F 30.24 in Calm     50% 0.00 in 0.0 W/m2
17:55 41.7 °F 24.4 °F 30.24 in Calm     50% 0.00 in 0.0 W/m2
18:00 41.5 °F 24.7 °F 30.24 in Calm     51% 0.00 in 0.0 W/m2
18:05 41.2 °F 24.9 °F 30.24 in Calm     52% 0.00 in 0.0 W/m2
18:10 40.9 °F 24.6 °F 30.24 in Calm     52% 0.00 in 0.0 W/m2
18:15 40.6 °F 24.8 °F 30.25 in Calm     53% 0.00 in 0.0 W/m2
18:20 40.4 °F 24.6 °F 30.25 in Calm     53% 0.00 in 0.0 W/m2
18:25 40.3 °F 24.5 °F 30.25 in Calm     53% 0.00 in 0.0 W/m2
18:30 40.2 °F 24.4 °F 30.25 in Calm     53% 0.00 in 0.0 W/m2
18:35 40.1 °F 24.8 °F 30.25 in Calm     54% 0.00 in 0.0 W/m2
18:40 39.8 °F 24.5 °F 30.25 in Calm     54% 0.00 in 0.0 W/m2
18:45 39.5 °F 24.7 °F 30.25 in Calm     55% 0.00 in 0.0 W/m2
18:50 39.3 °F 24.5 °F 30.25 in Calm     55% 0.00 in 0.0 W/m2
18:55 39.2 °F 24.8 °F 30.25 in Calm     56% 0.00 in 0.0 W/m2
19:00 39.1 °F 24.7 °F 30.25 in Calm     56% 0.00 in 0.0 W/m2
19:05 38.9 °F 24.5 °F 30.25 in Calm     56% 0.00 in 0.0 W/m2
19:10 38.7 °F 24.8 °F 30.25 in Calm     57% 0.00 in 0.0 W/m2
19:15 38.6 °F 24.7 °F 30.25 in Calm     57% 0.00 in 0.0 W/m2
19:20 38.4 °F 24.9 °F 30.25 in Calm     58% 0.00 in 0.0 W/m2
19:25 38.2 °F 24.7 °F 30.25 in Calm     58% 0.00 in 0.0 W/m2
19:30 37.9 °F 24.8 °F 30.25 in Calm     59% 0.00 in 0.0 W/m2
19:35 37.5 °F 24.9 °F 30.25 in Calm     60% 0.00 in 0.0 W/m2
19:40 37.0 °F 25.2 °F 30.25 in Calm     62% 0.00 in 0.0 W/m2
19:45 36.2 °F 25.2 °F 30.25 in Calm     64% 0.00 in 0.0 W/m2
19:50 35.4 °F 25.2 °F 30.25 in Calm     66% 0.00 in 0.0 W/m2
19:55 34.6 °F 25.1 °F 30.25 in Calm     68% 0.00 in 0.0 W/m2
20:00 34.0 °F 25.2 °F 30.25 in Calm     70% 0.00 in 0.0 W/m2
20:05 33.5 °F 25.1 °F 30.25 in Calm     71% 0.00 in 0.0 W/m2
20:10 33.1 °F 24.7 °F 30.25 in Calm     71% 0.00 in 0.0 W/m2
20:15 32.8 °F 24.8 °F 30.25 in Calm     72% 0.00 in 0.0 W/m2
20:20 32.7 °F 25.0 °F 30.25 in Calm     73% 0.00 in 0.0 W/m2
20:25 32.8 °F 25.1 °F 30.25 in Calm     73% 0.00 in 0.0 W/m2
20:30 33.1 °F 25.4 °F 30.25 in Calm     73% 0.00 in 0.0 W/m2
20:35 33.3 °F 25.2 °F 30.25 in Calm     72% 0.00 in 0.0 W/m2
20:40 33.3 °F 25.2 °F 30.25 in Calm     72% 0.00 in 0.0 W/m2
20:46 33.2 °F 25.5 °F 30.25 in Calm     73% 0.00 in 0.0 W/m2
20:51 33.1 °F 25.7 °F 30.25 in Calm     74% 0.00 in 0.0 W/m2
20:56 32.8 °F 25.4 °F 30.25 in Calm     74% 0.00 in 0.0 W/m2
21:01 32.6 °F 25.6 °F 30.26 in Calm     75% 0.00 in 0.0 W/m2
21:06 32.8 °F 26.1 °F 30.26 in Calm     76% 0.00 in 0.0 W/m2
21:11 33.1 °F 26.4 °F 30.26 in Calm     76% 0.00 in 0.0 W/m2
21:16 33.4 °F 26.6 °F 30.26 in Calm     76% 0.00 in 0.0 W/m2
21:21 33.6 °F 26.8 °F 30.26 in Calm     76% 0.00 in 0.0 W/m2
21:26 33.9 °F 26.8 °F 30.25 in Calm     75% 0.00 in 0.0 W/m2
21:31 34.1 °F 27.0 °F 30.25 in Calm     75% 0.00 in 0.0 W/m2
21:36 34.2 °F 27.1 °F 30.26 in Calm     75% 0.00 in 0.0 W/m2
21:41 34.3 °F 26.9 °F 30.25 in Calm     74% 0.00 in 0.0 W/m2
21:46 34.5 °F 27.1 °F 30.25 in Calm     74% 0.00 in 0.0 W/m2
21:51 34.7 °F 27.3 °F 30.25 in Calm     74% 0.00 in 0.0 W/m2
21:56 34.9 °F 27.1 °F 30.26 in Calm     73% 0.00 in 0.0 W/m2
22:01 35.0 °F 27.2 °F 30.25 in Calm     73% 0.00 in 0.0 W/m2
22:06 35.0 °F 27.2 °F 30.25 in Calm     73% 0.00 in 0.0 W/m2
22:11 35.0 °F 27.2 °F 30.25 in Calm     73% 0.00 in 0.0 W/m2
22:16 34.8 °F 27.0 °F 30.25 in Calm     73% 0.00 in 0.0 W/m2
22:21 34.6 °F 26.8 °F 30.25 in Calm     73% 0.00 in 0.0 W/m2
22:26 34.4 °F 26.6 °F 30.25 in Calm     73% 0.00 in 0.0 W/m2
22:31 34.2 °F 26.4 °F 30.25 in Calm     73% 0.00 in 0.0 W/m2
22:36 33.6 °F 26.2 °F 30.25 in Calm     74% 0.00 in 0.0 W/m2
22:41 33.0 °F 25.9 °F 30.26 in Calm     75% 0.00 in 0.0 W/m2
22:46 32.3 °F 25.6 °F 30.26 in Calm     76% 0.00 in 0.0 W/m2
22:51 31.6 °F 25.2 °F 30.26 in Calm     77% 0.00 in 0.0 W/m2
22:56 31.1 °F 25.3 °F 30.26 in Calm     79% 0.00 in 0.0 W/m2
23:01 30.8 °F 25.1 °F 30.26 in Calm     79% 0.00 in 0.0 W/m2
23:06 30.4 °F 25.0 °F 30.27 in Calm     80% 0.00 in 0.0 W/m2
23:11 30.2 °F 25.1 °F 30.27 in Calm     81% 0.00 in 0.0 W/m2
23:16 30.2 °F 25.4 °F 30.27 in Calm     82% 0.00 in 0.0 W/m2
23:21 30.3 °F 25.5 °F 30.27 in Calm     82% 0.00 in 0.0 W/m2
23:26 30.5 °F 25.7 °F 30.27 in Calm     82% 0.00 in 0.0 W/m2
23:31 30.7 °F 26.1 °F 30.27 in Calm     83% 0.00 in 0.0 W/m2
23:36 30.8 °F 26.0 °F 30.27 in Calm     82% 0.00 in 0.0 W/m2
23:41 30.9 °F 26.1 °F 30.27 in Calm     82% 0.00 in 0.0 W/m2
23:46 31.1 °F 26.2 °F 30.26 in Calm     82% 0.00 in 0.0 W/m2
23:51 31.4 °F 26.5 °F 30.26 in Calm     82% 0.00 in 0.0 W/m2
23:56 31.5 °F 26.3 °F 30.26 in Calm     81% 0.00 in 0.0 W/m2
Bourbonnais, Illinois, USA
Compliments of Weather Underground - 4 mb